createdAt,value
2023-01-27T00:03:55.701Z,6.1
2023-01-27T00:09:37.019Z,6.1
2023-01-27T00:14:37.044Z,6.1
2023-01-27T00:19:37.107Z,6.2
2023-01-27T00:24:55.552Z,6.1
2023-01-27T00:29:55.581Z,6.2
2023-01-27T00:35:37.044Z,6.2
2023-01-27T00:40:55.523Z,6.2
2023-01-27T00:45:55.562Z,6.2
2023-01-27T00:50:55.580Z,6.2
2023-01-27T00:55:55.597Z,6.2
2023-01-27T01:01:37.052Z,6.2
2023-01-27T01:06:55.609Z,6.3
2023-01-27T01:12:37.032Z,6.2
2023-01-27T01:17:55.548Z,6.2
2023-01-27T01:22:55.570Z,6.2
2023-01-27T01:27:55.544Z,6.2
2023-01-27T01:33:37.054Z,6.2
2023-01-27T01:38:55.565Z,6.3
2023-01-27T01:44:37.017Z,6.3
2023-01-27T01:49:37.027Z,6.3
2023-01-27T01:54:37.059Z,6.3
2023-01-27T01:59:55.548Z,6.2
2023-01-27T02:05:37.019Z,6.2
2023-01-27T02:10:37.063Z,6.2
2023-01-27T02:15:55.538Z,6.2
2023-01-27T02:20:55.571Z,6.3
2023-01-27T02:26:37.046Z,6.3
2023-01-27T02:31:55.524Z,6.2
2023-01-27T02:36:55.551Z,6.2
2023-01-27T02:42:37.017Z,6.2
2023-01-27T02:47:37.024Z,6.2
2023-01-27T02:52:55.540Z,6.3
2023-01-27T02:57:55.587Z,6.2
2023-01-27T03:03:37.014Z,6.2
2023-01-27T03:08:41.604Z,6.2
2023-01-27T03:13:55.585Z,6.2
2023-01-27T03:19:37.033Z,6.2
2023-01-27T03:24:39.537Z,6.2
2023-01-27T03:29:37.169Z,6.2
2023-01-27T03:34:55.615Z,6.1
2023-01-27T03:40:36.995Z,6.2
2023-01-27T03:45:37.061Z,6.2
2023-01-27T03:50:55.531Z,6.1
2023-01-27T03:56:37.037Z,6.2
2023-01-27T04:01:55.557Z,6.2
2023-01-27T04:06:55.547Z,6.2
2023-01-27T04:12:37.029Z,6.2
2023-01-27T04:17:55.578Z,6.2
2023-01-27T04:22:55.636Z,6.2
2023-01-27T04:28:44.373Z,6.1
2023-01-27T04:33:55.564Z,6.2
2023-01-27T04:39:37.030Z,6.2
2023-01-27T04:44:55.540Z,6.2
2023-01-27T04:49:55.644Z,6.2
2023-01-27T04:54:55.595Z,6.2
2023-01-27T05:00:37.030Z,6.2
2023-01-27T05:05:55.591Z,6.2
2023-01-27T05:11:37.008Z,6.2
2023-01-27T05:16:55.597Z,6.2
2023-01-27T05:21:55.557Z,6.2
2023-01-27T05:27:37.029Z,6.2
2023-01-27T05:32:55.541Z,6.2
2023-01-27T05:38:37.044Z,6.2
2023-01-27T05:43:37.014Z,6.1
2023-01-27T05:48:37.034Z,6.2
2023-01-27T05:53:55.547Z,6.2
2023-01-27T05:58:55.551Z,6.2
2023-01-27T06:03:55.576Z,6.2
2023-01-27T06:09:37.043Z,6.2
2023-01-27T06:14:55.536Z,6.2
2023-01-27T06:20:37.056Z,6.2
2023-01-27T06:25:55.548Z,6.1
2023-01-27T06:31:37.088Z,6.2
2023-01-27T06:36:37.088Z,6.2
2023-01-27T06:41:55.549Z,6.2
2023-01-27T06:47:37.015Z,6.1
2023-01-27T06:52:37.039Z,6.1
2023-01-27T06:57:55.596Z,6.1
2023-01-27T07:02:55.699Z,6.2
2023-01-27T07:08:36.996Z,6.1
2023-01-27T07:13:37.048Z,6.1
2023-01-27T07:18:55.499Z,6.1
2023-01-27T07:23:55.577Z,6.2
2023-01-27T07:28:58.539Z,6.2
2023-01-27T07:34:37.000Z,6.3
2023-01-27T07:39:37.009Z,6.3
2023-01-27T07:44:37.075Z,6.4
2023-01-27T07:49:55.540Z,6.4
2023-01-27T07:55:37.003Z,6.4
2023-01-27T08:00:37.133Z,6.4
2023-01-27T08:05:37.008Z,6.5
2023-01-27T08:10:55.506Z,6.6
2023-01-27T08:15:55.568Z,6.6
2023-01-27T08:20:55.544Z,6.7
2023-01-27T08:26:36.972Z,6.7
2023-01-27T08:31:37.084Z,6.7
2023-01-27T08:36:37.021Z,6.7
2023-01-27T08:41:37.039Z,6.7
2023-01-27T08:46:55.539Z,6.7
2023-01-27T08:51:55.611Z,6.8
2023-01-27T08:57:37.340Z,6.9
2023-01-27T09:02:37.037Z,7.2
2023-01-27T09:07:55.567Z,7.7
2023-01-27T09:13:37.021Z,7.9
2023-01-27T09:18:55.557Z,7.9
2023-01-27T09:23:55.587Z,7.8
2023-01-27T09:29:37.009Z,7.6
2023-01-27T09:34:55.535Z,7.6
2023-01-27T09:39:55.542Z,7.6
2023-01-27T09:45:37.024Z,7.7
2023-01-27T09:50:37.001Z,7.7
2023-01-27T09:55:36.981Z,7.8
2023-01-27T10:00:37.016Z,7.9
2023-01-27T10:05:55.592Z,7.8
2023-01-27T10:11:37.008Z,7.7
2023-01-27T10:16:55.515Z,7.7
2023-01-27T10:21:55.707Z,7.6
2023-01-27T10:27:37.041Z,7.4
2023-01-27T10:32:36.990Z,7.4
2023-01-27T10:37:37.056Z,7.4
2023-01-27T10:42:37.066Z,7.6
2023-01-27T10:47:55.582Z,7.7
2023-01-27T10:53:37.024Z,7.8
2023-01-27T10:58:55.530Z,8
2023-01-27T11:04:36.996Z,8.1
2023-01-27T11:09:37.034Z,7.9
2023-01-27T11:14:38.819Z,7.9
2023-01-27T11:19:37.179Z,7.8
2023-01-27T11:24:55.551Z,7.6
2023-01-27T11:29:55.644Z,7.5
2023-01-27T11:34:55.599Z,7.4
2023-01-27T11:40:37.044Z,7.4
2023-01-27T11:45:55.628Z,7.6
2023-01-27T11:51:36.984Z,7.7
2023-01-27T11:56:55.544Z,7.6
2023-01-27T12:01:55.514Z,7.7
2023-01-27T12:07:36.992Z,7.8
2023-01-27T12:12:37.109Z,7.9
2023-01-27T12:17:55.525Z,8.1
2023-01-27T12:23:37.010Z,8.2
2023-01-27T12:28:37.032Z,8.3
2023-01-27T12:33:55.523Z,8.2
2023-01-27T12:39:36.978Z,8
2023-01-27T12:44:55.558Z,8.1
2023-01-27T12:50:36.987Z,8
2023-01-27T12:55:37.169Z,8.2
2023-01-27T13:00:55.613Z,8.2
2023-01-27T13:06:36.976Z,7.8
2023-01-27T13:11:36.973Z,7.8
2023-01-27T13:16:37.098Z,7.6
2023-01-27T13:21:37.031Z,7.6
2023-01-27T13:26:55.509Z,7.5
2023-01-27T13:31:55.636Z,7.5
2023-01-27T13:36:55.531Z,7.6
2023-01-27T13:42:36.978Z,7.7
2023-01-27T13:47:37.046Z,7.5
2023-01-27T13:52:55.509Z,7.4
2023-01-27T13:57:55.541Z,7.3
2023-01-27T14:03:37.015Z,7.3
2023-01-27T14:08:36.989Z,7.2
2023-01-27T14:13:55.508Z,7.2
2023-01-27T14:19:37.037Z,7.3
2023-01-27T14:24:37.048Z,7.2
2023-01-27T14:29:55.517Z,7.3
2023-01-27T14:35:37.017Z,7.2
2023-01-27T14:40:55.484Z,7.3
2023-01-27T14:45:55.540Z,7.1
2023-01-27T14:50:55.628Z,7.2
2023-01-27T14:56:37.002Z,7.2
2023-01-27T15:01:37.045Z,7.2
2023-01-27T15:06:37.011Z,7.2
2023-01-27T15:11:55.497Z,7.2
2023-01-27T15:16:55.502Z,7.1
2023-01-27T15:22:37.000Z,7.1
2023-01-27T15:27:37.017Z,7
2023-01-27T15:32:37.203Z,7
2023-01-27T15:37:37.065Z,7
2023-01-27T15:42:55.535Z,7
2023-01-27T15:47:57.845Z,7
2023-01-27T15:52:55.520Z,7.1
2023-01-27T15:58:37.014Z,7
2023-01-27T16:03:37.046Z,6.9
2023-01-27T16:08:55.522Z,7
2023-01-27T16:13:55.588Z,6.9
2023-01-27T16:19:37.050Z,6.8
2023-01-27T16:24:55.494Z,6.9
2023-01-27T16:29:55.523Z,6.9
2023-01-27T16:35:37.030Z,6.9
2023-01-27T16:40:55.576Z,6.8
2023-01-27T16:46:37.043Z,6.9
2023-01-27T16:51:55.496Z,6.8
2023-01-27T16:56:55.537Z,6.7
2023-01-27T17:02:36.981Z,6.7
2023-01-27T17:07:36.992Z,6.7
2023-01-27T17:12:55.491Z,6.6
2023-01-27T17:18:50.793Z,6.6
2023-01-27T17:23:55.552Z,6.6
2023-01-27T17:29:36.984Z,6.5
2023-01-27T17:34:37.029Z,6.6
2023-01-27T17:39:55.514Z,6.6
2023-01-27T17:44:55.509Z,6.5
2023-01-27T17:50:36.988Z,6.6
2023-01-27T17:55:36.993Z,6.5
2023-01-27T18:00:55.496Z,6.5
2023-01-27T18:05:55.516Z,6.5
2023-01-27T18:11:36.979Z,6.5
2023-01-27T18:16:55.482Z,6.5
2023-01-27T18:21:55.517Z,6.5
2023-01-27T18:27:36.987Z,6.4
2023-01-27T18:32:36.986Z,6.5
2023-01-27T18:37:37.011Z,6.5
2023-01-27T18:42:55.489Z,6.5
2023-01-27T18:47:55.518Z,6.4
2023-01-27T18:53:37.009Z,6.5
2023-01-27T18:58:37.009Z,6.5
2023-01-27T19:03:55.499Z,6.5
2023-01-27T19:09:36.985Z,6.5
2023-01-27T19:14:55.510Z,6.5
2023-01-27T19:20:55.484Z,6.5
2023-01-27T19:25:55.526Z,6.5
2023-01-27T19:31:37.026Z,6.5
2023-01-27T19:36:55.489Z,6.5
2023-01-27T19:41:55.519Z,6.5
2023-01-27T19:47:36.962Z,6.4
2023-01-27T19:52:36.972Z,6.5
2023-01-27T19:57:37.002Z,6.4
2023-01-27T20:02:55.483Z,6.4
2023-01-27T20:08:36.956Z,6.5
2023-01-27T20:13:36.993Z,6.4
2023-01-27T20:18:55.514Z,6.4
2023-01-27T20:24:36.978Z,6.4
2023-01-27T20:29:55.526Z,6.4
2023-01-27T20:35:36.987Z,6.4
2023-01-27T20:40:36.995Z,6.4
2023-01-27T20:45:55.507Z,6.4
2023-01-27T20:50:55.494Z,6.4
2023-01-27T20:56:36.981Z,6.3
2023-01-27T21:01:46.981Z,6.3
2023-01-27T21:06:55.516Z,6.4
2023-01-27T21:12:36.947Z,6.3
2023-01-27T21:17:55.585Z,6.3
2023-01-27T21:22:55.551Z,6.3
2023-01-27T21:27:55.624Z,6.3
2023-01-27T21:33:36.962Z,6.4
2023-01-27T21:38:36.991Z,6.3
2023-01-27T21:43:36.989Z,6.3
2023-01-27T21:48:55.533Z,6.3
2023-01-27T21:54:36.965Z,6.3
2023-01-27T21:59:36.976Z,6.3
2023-01-27T22:04:37.122Z,6.2
2023-01-27T22:09:55.508Z,6.3
2023-01-27T22:15:36.955Z,6.2
2023-01-27T22:20:55.545Z,6.3
2023-01-27T22:25:55.541Z,6.3
2023-01-27T22:31:36.961Z,6.3
2023-01-27T22:36:55.540Z,6.3
2023-01-27T22:41:55.502Z,6.3
2023-01-27T22:46:55.508Z,6.3
2023-01-27T22:52:36.990Z,6.2
2023-01-27T22:57:37.186Z,6.2
2023-01-27T23:02:55.563Z,6.2
2023-01-27T23:08:36.970Z,6.3
2023-01-27T23:13:36.966Z,6.3
2023-01-27T23:18:36.958Z,6.3
2023-01-27T23:23:37.074Z,6.3
2023-01-27T23:28:55.532Z,6.2
2023-01-27T23:33:55.504Z,6.3
2023-01-27T23:39:36.965Z,6.3
2023-01-27T23:44:55.543Z,6.2
2023-01-27T23:50:36.943Z,6.3
2023-01-27T23:55:55.504Z,6.2
